Augusta, Illinois
Current Conditions -  °F | °C
As of 5:54 AM on Friday 24 Oct 2014 (Local Time) from KUIN Reporting Station
Moderate Fog Moderate Fog  
Wind Chill: 13°   Ceiling: 200
Heat Index: 13°   Visibility: 0.25mi
Dew Point: 12°   Wind: 3mph
Humidity: 96%   Direction: 270°W
Pressure: 30.07"   Gusts: NA
Location:  40.23°N, 90.95°W
Report Text: KUIN 241054Z AUTO 27003KT 1/4SM FG VV002 13/12 A3007 RMK AO2 SLP183 T01280122
Loading
Personal Weather Stations






























Interactive Weather Map
Tropical Storm Tracking
New forecast layout! Learn more

10-Day Weather Forecast

Advertisements
Track Severe Weather on mobile